Time;durP1;ratioP1;P1;durP2;ratioP2;P2;SDS_P1;SDS_P2;PMS_P1;PMS_P2;Temp;Humidity;BMP_temperature;BMP_pressure;BME280_temperature;BME280_humidity;BME280_pressure;Samples;Min_cycle;Max_cycle;Signal;HPM_P1;HPM_P2
2022/07/26 00:00:28;;;;;;;6.92;4.20;;;;;;;20.61;64.61;100080.06;1758187;81;25998;-75
2022/07/26 00:02:57;;;;;;;5.92;5.00;;;;;;;20.56;64.65;100069.97;1761167;79;25806;-75
2022/07/26 00:05:23;;;;;;;5.47;4.92;;;;;;;20.52;64.80;100059.34;1752176;81;26567;-76
2022/07/26 00:07:49;;;;;;;12.85;6.17;;;;;;;20.47;64.81;100053.86;1734425;82;27462;-76
2022/07/26 00:10:16;;;;;;;7.30;5.55;;;;;;;20.45;64.89;100050.59;1757843;80;25745;-75
2022/07/26 00:12:42;;;;;;;6.62;5.08;;;;;;;20.43;64.96;100058.20;1759030;79;25948;-76
2022/07/26 00:15:10;;;;;;;6.33;4.50;;;;;;;20.42;65.08;100068.00;1761225;80;25921;-76
2022/07/26 00:17:38;;;;;;;6.83;5.10;;;;;;;20.39;65.19;100063.06;1762029;81;25873;-76
2022/07/26 00:20:05;;;;;;;7.97;5.20;;;;;;;20.35;65.29;100052.44;1754337;81;27677;-76
2022/07/26 00:22:34;;;;;;;8.70;5.67;;;;;;;20.30;65.33;100047.78;1751433;79;25927;-76
2022/07/26 00:25:07;;;;;;;9.28;6.17;;;;;;;20.26;65.45;100039.88;1750945;81;25747;-75
2022/07/26 00:27:37;;;;;;;7.15;4.95;;;;;;;20.24;65.56;100034.42;1762243;81;26212;-76
2022/07/26 00:30:07;;;;;;;5.10;4.47;;;;;;;20.22;65.67;100036.58;1757761;81;25756;-76
2022/07/26 00:32:33;;;;;;;5.93;4.97;;;;;;;20.21;65.69;100034.96;1721423;81;27622;-75
2022/07/26 00:35:00;;;;;;;6.42;4.72;;;;;;;20.19;65.92;100015.34;1750480;81;25992;-75
2022/07/26 00:37:26;;;;;;;5.20;4.70;;;;;;;20.15;65.87;100010.13;1761292;81;25917;-76
2022/07/26 00:39:52;;;;;;;5.78;4.75;;;;;;;20.13;65.97;100006.84;1733927;81;26166;-75
2022/07/26 00:42:19;;;;;;;5.37;4.72;;;;;;;20.09;66.10;99998.41;1755944;81;25928;-75
2022/07/26 00:44:46;;;;;;;6.03;4.90;;;;;;;20.04;66.18;100001.09;1758902;81;28004;-76
2022/07/26 00:47:13;;;;;;;5.53;4.58;;;;;;;20.01;66.39;99998.91;1758700;81;25835;-76
2022/07/26 00:49:40;;;;;;;6.00;4.80;;;;;;;19.98;66.47;100009.77;1760676;81;25825;-76
2022/07/26 00:52:09;;;;;;;5.47;4.85;;;;;;;19.96;66.54;100015.19;1754886;81;25733;-76
2022/07/26 00:54:38;;;;;;;5.85;4.45;;;;;;;19.93;66.66;100005.64;1765023;79;25957;-76
2022/07/26 00:57:04;;;;;;;6.50;4.60;;;;;;;19.91;66.67;99999.66;1752507;79;27536;-75
2022/07/26 00:59:31;;;;;;;6.00;4.30;;;;;;;19.89;66.83;99992.30;1760299;80;25922;-76
2022/07/26 01:01:58;;;;;;;5.42;4.70;;;;;;;19.83;66.93;99989.81;1742277;79;25791;-75
2022/07/26 01:04:24;;;;;;;6.33;4.28;;;;;;;19.74;67.21;99985.41;1745142;80;26088;-76
2022/07/26 01:06:51;;;;;;;6.28;4.62;;;;;;;19.67;67.33;99993.52;1746528;81;25969;-75
2022/07/26 01:09:18;;;;;;;5.70;5.10;;;;;;;19.63;67.49;100001.91;1757718;79;27636;-76
2022/07/26 01:11:45;;;;;;;7.78;4.40;;;;;;;19.61;67.57;100002.15;1764459;79;25843;-76
2022/07/26 01:14:11;;;;;;;6.70;4.75;;;;;;;19.62;67.58;100005.16;1747693;79;25798;-75
2022/07/26 01:16:37;;;;;;;6.92;4.33;;;;;;;19.63;67.64;100007.34;1763062;79;26228;-75
2022/07/26 01:19:04;;;;;;;6.45;4.53;;;;;;;19.68;67.62;100001.40;1755188;81;25795;-76
2022/07/26 01:21:32;;;;;;;5.90;4.50;;;;;;;19.71;67.61;100000.06;1745398;79;28400;-75
2022/07/26 01:23:59;;;;;;;8.78;4.97;;;;;;;19.70;67.52;99995.16;1769857;80;26456;-76
2022/07/26 01:26:25;;;;;;;6.62;4.95;;;;;;;19.70;67.58;99999.77;1782052;80;25809;-76
2022/07/26 01:28:51;;;;;;;5.30;4.65;;;;;;;19.71;67.65;99994.09;1762187;79;25814;-76
2022/07/26 01:31:18;;;;;;;5.72;5.00;;;;;;;19.71;67.59;99995.45;1731205;81;25747;-77
2022/07/26 01:33:44;;;;;;;7.45;5.10;;;;;;;19.67;67.61;99994.34;1763101;81;27676;-77
2022/07/26 01:36:11;;;;;;;5.42;4.30;;;;;;;19.68;67.68;99993.78;1752205;79;26710;-76
2022/07/26 01:38:40;;;;;;;8.63;4.53;;;;;;;19.68;67.67;99997.86;1746016;81;25942;-75
2022/07/26 01:41:06;;;;;;;6.00;4.97;;;;;;;19.67;67.70;99986.72;1753897;81;25795;-76
2022/07/26 01:43:33;;;;;;;5.95;5.17;;;;;;;19.65;67.74;99982.09;1754850;79;25707;-76
2022/07/26 01:45:59;;;;;;;9.70;5.08;;;;;;;19.62;67.72;99982.59;1748028;81;27474;-76
2022/07/26 01:48:26;;;;;;;6.65;5.05;;;;;;;19.57;67.72;99982.02;1741299;81;26046;-75
2022/07/26 01:50:52;;;;;;;7.20;4.60;;;;;;;19.54;67.86;99979.84;1733383;81;25782;-75
2022/07/26 01:53:18;;;;;;;9.53;4.80;;;;;;;19.54;67.96;99984.45;1757967;79;25935;-75
2022/07/26 01:55:45;;;;;;;4.92;4.20;;;;;;;19.54;68.03;99985.80;1767864;79;25437;-76
2022/07/26 01:58:11;;;;;;;5.95;4.62;;;;;;;19.53;67.93;99985.51;1763830;79;28204;-75
2022/07/26 02:00:37;;;;;;;6.83;5.00;;;;;;;19.51;67.99;99977.63;1732125;81;25720;-75
2022/07/26 02:03:04;;;;;;;7.92;5.30;;;;;;;19.48;68.01;99975.98;1764467;79;25864;-75
2022/07/26 02:05:30;;;;;;;6.70;5.03;;;;;;;19.43;68.04;99978.12;1767361;79;25765;-76
2022/07/26 02:07:57;;;;;;;6.12;5.53;;;;;;;19.42;68.05;99979.17;1758892;81;25847;-76
2022/07/26 02:10:23;;;;;;;6.72;4.92;;;;;;;19.41;68.16;99972.66;1764002;81;28109;-75
2022/07/26 02:12:50;;;;;;;5.97;4.65;;;;;;;19.37;68.20;99966.94;1745050;79;26230;-76
2022/07/26 02:15:16;;;;;;;6.25;4.80;;;;;;;19.32;68.21;99955.98;1754115;81;26536;-76
2022/07/26 02:17:43;;;;;;;6.30;4.95;;;;;;;19.31;68.32;99955.69;1752492;79;25835;-75
2022/07/26 02:20:10;;;;;;;6.97;5.05;;;;;;;19.29;68.32;99951.62;1762362;79;25788;-75
2022/07/26 02:22:36;;;;;;;8.55;5.62;;;;;;;19.26;68.38;99952.95;1709296;82;27945;-75
2022/07/26 02:25:03;;;;;;;7.80;4.78;;;;;;;19.24;68.38;99957.83;1742166;81;25789;-76
2022/07/26 02:27:29;;;;;;;6.47;4.87;;;;;;;19.22;68.40;99952.63;1766174;81;25835;-75
2022/07/26 02:29:56;;;;;;;5.15;4.65;;;;;;;19.21;68.42;99951.02;1760363;81;26108;-76
2022/07/26 02:32:22;;;;;;;8.18;4.83;;;;;;;19.20;68.41;99948.00;1786379;78;26606;-76
2022/07/26 02:34:48;;;;;;;6.15;4.65;;;;;;;19.20;68.41;99947.20;1790337;78;27478;-75
2022/07/26 02:37:14;;;;;;;5.40;4.90;;;;;;;19.17;68.47;99935.49;1751578;81;25961;-76
2022/07/26 02:39:41;;;;;;;5.17;4.70;;;;;;;19.14;68.47;99932.75;1757964;79;25877;-76
2022/07/26 02:42:07;;;;;;;7.80;5.58;;;;;;;19.11;68.54;99925.67;1745158;81;25820;-75
2022/07/26 02:44:34;;;;;;;6.97;4.83;;;;;;;19.06;68.66;99929.69;1758270;79;25688;-75
2022/07/26 02:47:00;;;;;;;6.78;5.30;;;;;;;19.02;68.85;99934.83;1746169;81;27435;-75
2022/07/26 02:49:27;;;;;;;6.08;4.67;;;;;;;19.02;69.08;99932.64;1752560;81;26529;-76
2022/07/26 02:51:53;;;;;;;5.30;4.80;;;;;;;19.02;69.06;99935.36;1744793;81;25887;-76
2022/07/26 02:54:19;;;;;;;5.22;4.72;;;;;;;19.01;69.04;99929.66;1747025;81;26423;-75
2022/07/26 02:56:45;;;;;;;5.62;5.12;;;;;;;19.00;69.12;99929.37;1762318;81;26570;-76
2022/07/26 02:59:12;;;;;;;6.47;5.58;;;;;;;18.98;69.15;99934.23;1756641;79;27539;-75
2022/07/26 03:01:38;;;;;;;7.28;5.97;;;;;;;18.97;69.25;99940.20;1758310;79;26496;-76
2022/07/26 03:04:06;;;;;;;6.30;4.95;;;;;;;18.97;69.34;99949.70;1766016;79;25796;-75
2022/07/26 03:06:32;;;;;;;8.80;4.37;;;;;;;18.98;69.39;99955.95;1760540;81;25810;-76
2022/07/26 03:08:59;;;;;;;4.85;4.35;;;;;;;18.97;69.46;99948.34;1767981;81;25974;-75
2022/07/26 03:11:25;;;;;;;6.67;4.75;;;;;;;18.95;69.57;99942.34;1763428;81;28270;-76
2022/07/26 03:13:52;;;;;;;5.60;4.92;;;;;;;18.94;69.57;99937.19;1762909;80;25850;-75
2022/07/26 03:16:18;;;;;;;12.88;9.45;;;;;;;18.94;69.71;99930.41;1758343;81;25771;-75
2022/07/26 03:18:45;;;;;;;13.40;12.10;;;;;;;18.94;69.98;99923.09;1761253;81;25800;-77
2022/07/26 03:21:11;;;;;;;11.53;10.40;;;;;;;18.98;70.19;99922.84;1763808;81;25923;-77
2022/07/26 03:23:37;;;;;;;10.43;8.50;;;;;;;19.01;70.35;99922.31;1759824;79;28124;-77
2022/07/26 03:26:04;;;;;;;10.35;6.20;;;;;;;19.07;70.52;99915.05;1752937;81;25776;-77
2022/07/26 03:28:32;;;;;;;8.13;6.50;;;;;;;19.08;70.44;99911.25;1747659;79;25900;-77
2022/07/26 03:30:59;;;;;;;7.10;5.42;;;;;;;19.11;70.39;99912.92;1744945;81;26783;-77
2022/07/26 03:33:25;;;;;;;7.90;5.40;;;;;;;19.13;70.37;99913.48;1763194;79;26132;-77
2022/07/26 03:35:51;;;;;;;6.95;5.35;;;;;;;19.16;70.65;99904.80;1762309;79;27451;-76
2022/07/26 03:38:18;;;;;;;11.18;5.30;;;;;;;19.21;70.56;99899.95;1751302;80;26479;-77
2022/07/26 03:40:44;;;;;;;6.50;5.20;;;;;;;19.25;70.48;99901.06;1759081;81;25852;-77
2022/07/26 03:43:10;;;;;;;6.55;5.78;;;;;;;19.25;70.42;99891.03;1742883;81;26445;-77
2022/07/26 03:45:36;;;;;;;7.50;5.08;;;;;;;19.28;70.37;99892.95;1753297;79;25953;-77
2022/07/26 03:48:03;;;;;;;8.68;6.05;;;;;;;19.27;70.35;99893.48;1753484;81;28350;-77
2022/07/26 03:50:30;;;;;;;6.10;5.55;;;;;;;19.24;70.46;99892.66;1761816;81;25966;-77
2022/07/26 03:52:56;;;;;;;5.62;5.03;;;;;;;19.20;70.56;99887.47;1761727;81;25322;-77
2022/07/26 03:58:07;;;;;;;6.45;5.28;;;;;;;19.30;70.74;99904.36;1753475;81;25829;-77
2022/07/26 04:00:34;;;;;;;7.97;5.30;;;;;;;19.33;70.70;99901.14;1728925;81;28305;-77
2022/07/26 04:03:00;;;;;;;7.55;5.62;;;;;;;19.36;70.82;99897.92;1754676;80;26534;-76
2022/07/26 04:05:26;;;;;;;6.97;6.10;;;;;;;19.39;70.82;99902.84;1759626;81;25831;-77
2022/07/26 04:07:53;;;;;;;6.37;5.75;;;;;;;19.42;70.83;99906.41;1767105;81;26027;-77
2022/07/26 04:10:23;;;;;;;6.30;5.17;;;;;;;19.47;70.77;99899.63;1755922;79;25900;-77
2022/07/26 04:12:49;;;;;;;9.85;5.90;;;;;;;19.53;71.12;99891.25;1768044;79;28273;-77
2022/07/26 04:15:17;;;;;;;7.75;5.40;;;;;;;19.63;71.14;99891.88;1747762;79;25959;-77
2022/07/26 04:17:44;;;;;;;5.85;5.25;;;;;;;19.74;71.16;99890.29;1755522;81;26740;-79
2022/07/26 04:20:11;;;;;;;7.37;5.45;;;;;;;19.81;71.03;99883.27;1733307;81;25811;-78
2022/07/26 04:22:39;;;;;;;8.08;5.45;;;;;;;19.89;70.88;99882.22;1754241;81;25797;-77
2022/07/26 04:25:08;;;;;;;8.20;5.28;;;;;;;19.95;70.55;99879.79;1735279;81;27510;-78
2022/07/26 04:27:35;;;;;;;6.20;5.22;;;;;;;19.96;70.42;99877.90;1767863;79;25747;-77
2022/07/26 04:30:03;;;;;;;6.17;5.20;;;;;;;20.02;70.45;99882.84;1753660;79;25833;-77
2022/07/26 04:32:30;;;;;;;9.25;5.42;;;;;;;20.05;70.37;99872.23;1745391;79;25717;-77
2022/07/26 04:34:56;;;;;;;6.92;4.97;;;;;;;20.11;70.45;99863.01;1763554;79;26159;-78
2022/07/26 04:37:23;;;;;;;9.68;5.47;;;;;;;20.13;70.04;99862.20;1760931;79;27448;-78
2022/07/26 04:39:51;;;;;;;6.72;5.40;;;;;;;20.12;70.03;99863.30;1760362;79;25798;-77
2022/07/26 04:42:17;;;;;;;7.22;4.90;;;;;;;20.14;70.14;99863.02;1761630;79;25663;-77
2022/07/26 04:44:43;;;;;;;6.67;5.67;;;;;;;20.11;70.11;99864.91;1759852;79;26537;-77
2022/07/26 04:47:10;;;;;;;9.05;5.62;;;;;;;20.09;70.08;99861.10;1757218;79;26504;-75
2022/07/26 04:49:36;;;;;;;12.47;5.62;;;;;;;20.13;70.11;99853.22;1759953;79;28243;-75
2022/07/26 04:52:02;;;;;;;8.50;6.08;;;;;;;20.13;70.29;99852.69;1754826;79;26468;-76
2022/07/26 04:54:29;;;;;;;6.70;5.75;;;;;;;20.14;70.37;99856.23;1756758;81;25789;-74
2022/07/26 04:56:55;;;;;;;9.18;5.22;;;;;;;20.21;70.54;99854.11;1757709;81;25833;-75
2022/07/26 04:59:21;;;;;;;5.65;4.75;;;;;;;20.32;70.66;99849.77;1753865;79;25498;-75
2022/07/26 05:01:47;;;;;;;8.03;5.72;;;;;;;20.44;70.54;99848.19;1762067;80;27439;-75
2022/07/26 05:04:14;;;;;;;6.00;5.40;;;;;;;20.56;70.64;99854.18;1733946;81;25343;-75
2022/07/26 05:06:40;;;;;;;5.70;4.87;;;;;;;20.70;70.70;99849.30;1738552;81;25826;-74
2022/07/26 05:09:07;;;;;;;8.88;5.33;;;;;;;20.77;70.41;99849.03;1785713;79;25762;-74
2022/07/26 05:11:34;;;;;;;8.70;5.35;;;;;;;20.87;70.25;99852.31;1758622;79;25825;-75
2022/07/26 05:14:00;;;;;;;11.20;5.25;;;;;;;20.94;69.84;99856.39;1752845;80;27626;-75
2022/07/26 05:16:26;;;;;;;8.35;5.80;;;;;;;21.02;69.73;99853.68;1742570;79;26139;-74
2022/07/26 05:18:54;;;;;;;6.33;5.25;;;;;;;21.07;69.69;99842.26;1734048;81;25763;-75
2022/07/26 05:21:20;;;;;;;8.28;5.25;;;;;;;21.16;69.85;99836.54;1726055;81;26612;-75
2022/07/26 05:23:47;;;;;;;6.05;5.20;;;;;;;21.25;69.73;99841.70;1763706;81;25731;-74
2022/07/26 05:26:14;;;;;;;8.23;5.80;;;;;;;21.32;69.73;99837.34;1761322;80;28268;-75
2022/07/26 05:28:41;;;;;;;6.65;5.20;;;;;;;21.35;69.54;99840.32;1758239;80;25945;-75
2022/07/26 05:31:07;;;;;;;8.78;4.87;;;;;;;21.44;69.49;99844.12;1749057;79;25741;-75
2022/07/26 05:33:33;;;;;;;5.87;4.83;;;;;;;21.56;69.75;99844.34;1752414;81;26294;-75
2022/07/26 05:35:59;;;;;;;5.62;5.10;;;;;;;21.67;69.55;99839.96;1763441;81;25880;-75
2022/07/26 05:38:26;;;;;;;5.92;5.28;;;;;;;21.77;69.28;99840.49;1747613;81;28315;-75
2022/07/26 05:40:52;;;;;;;6.92;5.17;;;;;;;21.82;68.81;99844.03;1753941;81;25731;-74
2022/07/26 05:43:19;;;;;;;6.40;4.75;;;;;;;21.86;68.63;99849.73;1752048;81;25790;-75
2022/07/26 05:45:45;;;;;;;5.97;4.62;;;;;;;21.91;68.60;99845.09;1760067;79;25787;-75
2022/07/26 05:48:12;;;;;;;6.10;5.12;;;;;;;22.01;68.82;99841.50;1756749;79;26177;-75
2022/07/26 05:50:38;;;;;;;7.87;4.60;;;;;;;22.10;68.35;99834.37;1760529;80;27604;-74
2022/07/26 05:53:04;;;;;;;7.33;4.92;;;;;;;22.16;68.14;99837.33;1756438;81;26012;-75
2022/07/26 05:55:30;;;;;;;8.18;5.20;;;;;;;22.23;68.39;99840.03;1761298;79;26494;-75
2022/07/26 05:57:57;;;;;;;7.37;4.55;;;;;;;22.34;67.71;99829.05;1770818;80;25850;-74
2022/07/26 06:00:23;;;;;;;5.53;5.05;;;;;;;22.41;67.29;99830.36;1757057;79;25789;-75
2022/07/26 06:02:49;;;;;;;6.62;5.05;;;;;;;22.47;67.23;99833.89;1746809;80;27436;-75
2022/07/26 06:05:16;;;;;;;5.60;4.40;;;;;;;22.55;67.19;99835.47;1751283;81;26004;-75
2022/07/26 06:07:42;;;;;;;10.95;5.15;;;;;;;22.65;66.92;99834.59;1761159;81;26438;-75
2022/07/26 06:10:09;;;;;;;5.62;4.90;;;;;;;22.71;66.53;99829.39;1752780;81;25802;-75
2022/07/26 06:12:37;;;;;;;11.78;5.50;;;;;;;22.75;66.05;99839.43;1748696;79;25743;-75
2022/07/26 06:15:05;;;;;;;6.72;4.95;;;;;;;22.80;66.01;99851.69;1762167;81;28047;-75
2022/07/26 06:17:31;;;;;;;6.45;4.50;;;;;;;22.85;65.83;99876.78;1747201;79;26300;-75
2022/07/26 06:19:59;;;;;;;4.45;4.05;;;;;;;22.85;65.81;99910.92;1755978;81;25784;-76
2022/07/26 06:22:25;;;;;;;8.08;4.33;;;;;;;22.91;65.92;99919.34;1749305;79;26566;-75
2022/07/26 06:24:51;;;;;;;8.00;4.62;;;;;;;22.95;65.70;99898.55;1760705;79;25301;-75
2022/07/26 06:27:17;;;;;;;5.85;3.75;;;;;;;23.01;65.84;99894.13;1775044;79;27388;-75
2022/07/26 06:29:47;;;;;;;7.70;4.15;;;;;;;23.09;66.26;99877.70;1757204;79;25909;-75
2022/07/26 06:32:12;;;;;;;4.50;4.10;;;;;;;23.16;66.04;99874.06;1764076;81;25830;-75
2022/07/26 06:34:38;;;;;;;5.28;4.15;;;;;;;23.23;65.44;99865.53;1760394;81;26542;-75
2022/07/26 06:37:04;;;;;;;7.45;4.15;;;;;;;23.26;64.92;99875.36;1767075;81;25735;-75
2022/07/26 06:39:31;;;;;;;6.17;4.40;;;;;;;23.30;64.88;99874.22;1750994;81;27591;-74
2022/07/26 06:41:57;;;;;;;6.92;4.12;;;;;;;23.34;64.60;99872.03;1762687;79;25901;-75
2022/07/26 06:44:23;;;;;;;4.37;3.70;;;;;;;23.40;64.74;99877.70;1750777;79;25906;-74
2022/07/26 06:46:50;;;;;;;5.87;4.17;;;;;;;23.49;65.09;99877.34;1763284;79;25788;-74
2022/07/26 06:49:16;;;;;;;4.60;4.20;;;;;;;23.60;64.69;99872.59;1767315;80;25889;-76
2022/07/26 06:51:42;;;;;;;6.03;4.22;;;;;;;23.66;64.13;99874.98;1757364;81;27441;-75
2022/07/26 06:54:08;;;;;;;6.25;4.00;;;;;;;23.75;64.22;99877.35;1756255;79;26008;-75
2022/07/26 06:56:35;;;;;;;4.53;3.83;;;;;;;23.81;63.84;99877.27;1763535;79;25919;-75
2022/07/26 06:59:01;;;;;;;4.90;4.40;;;;;;;23.87;63.61;99869.27;1763983;79;26465;-75
2022/07/26 07:01:27;;;;;;;4.85;4.42;;;;;;;23.92;63.94;99865.94;1762011;79;25827;-75
2022/07/26 07:03:53;;;;;;;5.17;4.20;;;;;;;23.96;63.14;99867.52;1749443;80;27460;-76
2022/07/26 07:06:20;;;;;;;5.53;3.70;;;;;;;23.97;63.21;99863.15;1761332;81;25808;-75
2022/07/26 07:08:48;;;;;;;4.70;4.03;;;;;;;24.02;63.04;99863.06;1760873;79;25977;-75
2022/07/26 07:11:14;;;;;;;4.33;3.90;;;;;;;24.07;63.47;99861.67;1751021;79;26655;-75
2022/07/26 07:13:40;;;;;;;7.78;4.30;;;;;;;24.11;62.81;99863.27;1757892;80;25936;-75
2022/07/26 07:16:07;;;;;;;5.05;4.17;;;;;;;24.12;62.49;99859.44;1740531;79;27424;-76
2022/07/26 07:18:35;;;;;;;6.30;3.65;;;;;;;24.12;62.56;99861.59;1721248;81;26549;-76
2022/07/26 07:21:02;;;;;;;8.25;4.65;;;;;;;24.13;62.10;99866.52;1731895;81;26095;-76
2022/07/26 07:23:28;;;;;;;4.28;3.87;;;;;;;24.15;62.31;99867.86;1720335;82;26588;-75
2022/07/26 07:25:54;;;;;;;4.50;3.92;;;;;;;24.20;62.44;99865.62;1763951;81;25827;-76
2022/07/26 07:28:20;;;;;;;5.05;3.85;;;;;;;24.22;62.13;99862.03;1760597;80;28389;-76
2022/07/26 07:30:47;;;;;;;4.67;3.83;;;;;;;24.23;62.09;99865.05;1757635;81;25690;-76
2022/07/26 07:33:13;;;;;;;4.03;3.50;;;;;;;24.20;60.96;99854.13;1760638;81;25992;-77
2022/07/26 07:35:40;;;;;;;6.70;3.90;;;;;;;24.19;61.21;99859.87;1760278;81;26550;-76
2022/07/26 07:38:07;;;;;;;4.00;3.60;;;;;;;24.18;60.96;99857.71;1751706;79;25342;-76
2022/07/26 07:40:33;;;;;;;5.72;3.67;;;;;;;24.17;61.13;99857.98;1750260;79;27579;-76
2022/07/26 07:43:01;;;;;;;4.25;3.27;;;;;;;24.21;60.85;99876.81;1773248;79;25704;-76
2022/07/26 07:45:28;;;;;;;5.50;4.20;;;;;;;24.19;60.93;99882.59;1759411;81;25814;-76
2022/07/26 07:47:54;;;;;;;4.90;4.08;;;;;;;24.22;60.93;99878.45;1738309;81;25848;-76
2022/07/26 07:50:20;;;;;;;6.12;4.12;;;;;;;24.23;61.07;99871.30;1761747;79;25971;-76
2022/07/26 07:52:47;;;;;;;5.78;4.10;;;;;;;24.26;60.88;99861.16;1752554;81;28284;-77
2022/07/26 07:55:13;;;;;;;6.83;4.47;;;;;;;24.29;60.32;99855.07;1759958;79;25723;-76
2022/07/26 07:57:39;;;;;;;4.75;4.08;;;;;;;24.30;60.19;99858.08;1758382;81;25743;-75
2022/07/26 08:00:07;;;;;;;6.67;4.28;;;;;;;24.33;59.96;99867.63;1753299;79;25856;-75
2022/07/26 08:02:36;;;;;;;6.85;4.15;;;;;;;24.33;60.16;99870.38;1769082;80;25959;-75
2022/07/26 08:05:03;;;;;;;4.45;4.05;;;;;;;24.32;59.96;99874.20;1761508;79;27424;-76
2022/07/26 08:07:29;;;;;;;7.17;3.67;;;;;;;24.33;60.30;99871.73;1752116;81;25743;-76
2022/07/26 08:09:56;;;;;;;4.40;4.00;;;;;;;24.32;60.62;99864.08;1760504;81;25852;-77
2022/07/26 08:12:22;;;;;;;4.30;3.98;;;;;;;24.34;59.60;99871.98;1746632;81;26598;-75
2022/07/26 08:14:48;;;;;;;4.97;4.22;;;;;;;24.37;60.25;99871.41;1753760;79;27037;-76
2022/07/26 08:17:14;;;;;;;6.08;4.42;;;;;;;24.37;59.89;99876.34;1755103;79;27466;-75
2022/07/26 08:19:41;;;;;;;6.42;4.15;;;;;;;24.34;59.34;99877.45;1756962;81;26351;-76
2022/07/26 08:22:07;;;;;;;4.60;3.67;;;;;;;24.32;59.18;99880.50;1761578;81;25809;-75
2022/07/26 08:24:34;;;;;;;4.42;4.03;;;;;;;24.29;59.02;99889.86;1753062;79;25963;-75
2022/07/26 08:27:00;;;;;;;6.20;4.03;;;;;;;24.25;59.12;99908.77;1763120;81;25858;-75
2022/07/26 08:29:27;;;;;;;4.70;4.17;;;;;;;24.19;59.30;99909.95;1759811;81;27547;-76
2022/07/26 08:31:53;;;;;;;7.45;4.25;;;;;;;24.15;59.64;99907.54;1740846;81;25810;-75
2022/07/26 08:34:20;;;;;;;9.15;4.45;;;;;;;24.10;59.59;99910.91;1757511;79;25836;-75
2022/07/26 08:36:47;;;;;;;5.65;4.67;;;;;;;24.05;59.55;99917.25;1761654;79;25858;-75
2022/07/26 08:39:15;;;;;;;4.75;4.35;;;;;;;23.97;60.08;99919.23;1728626;81;26519;-75
2022/07/26 08:41:42;;;;;;;6.67;4.10;;;;;;;23.93;60.29;99930.47;1741493;81;27483;-75
2022/07/26 08:44:10;;;;;;;5.67;4.08;;;;;;;23.87;60.05;99932.17;1762003;79;25945;-76
2022/07/26 08:46:40;;;;;;;4.87;4.40;;;;;;;23.81;59.82;99931.98;1759797;80;25735;-75
2022/07/26 08:49:08;;;;;;;4.90;4.33;;;;;;;23.76;60.36;99943.23;1756150;79;25989;-76
2022/07/26 08:51:42;;;;;;;6.50;4.22;;;;;;;23.70;60.22;99934.00;1757868;80;25947;-76
2022/07/26 08:54:14;;;;;;;5.62;4.20;;;;;;;23.66;60.68;99928.84;1791269;78;28220;-77
2022/07/26 08:56:45;;;;;;;4.70;4.30;;;;;;;23.62;60.68;99929.98;1789028;79;26197;-77
2022/07/26 08:59:16;;;;;;;5.08;3.83;;;;;;;23.58;61.12;99930.84;1785337;78;25806;-77
2022/07/26 09:02:03;;;;;;;7.67;4.60;;;;;;;23.54;61.32;99919.69;1750466;80;29694;-75
2022/07/26 09:04:36;;;;;;;6.10;4.62;;;;;;;23.53;61.08;99933.08;1757333;80;25822;-75
2022/07/26 09:07:15;;;;;;;6.28;4.47;;;;;;;23.52;61.11;99938.27;1752364;81;27459;-75
2022/07/26 09:10:04;;;;;;;4.83;4.33;;;;;;;23.56;61.64;99951.65;1758588;79;25784;-75
2022/07/26 09:12:32;;;;;;;5.25;4.35;;;;;;;23.59;61.50;99957.07;1774882;79;26201;-76
2022/07/26 09:15:00;;;;;;;9.18;4.50;;;;;;;23.59;61.26;99967.46;1764679;81;25699;-75
2022/07/26 09:17:46;;;;;;;5.62;4.53;;;;;;;23.59;61.21;99968.83;1748082;81;25965;-75
2022/07/26 09:20:24;;;;;;;6.47;5.03;;;;;;;23.56;61.35;99970.79;1761177;80;27453;-76
2022/07/26 09:23:10;;;;;;;7.53;4.53;;;;;;;23.55;61.41;99971.88;1764330;81;25929;-76
2022/07/26 09:25:44;;;;;;;9.83;5.35;;;;;;;23.60;61.72;99979.22;1764949;81;25897;-75
2022/07/26 09:28:29;;;;;;;7.60;5.15;;;;;;;23.58;61.20;99982.25;1763751;81;27103;-76
2022/07/26 09:31:03;;;;;;;12.50;6.12;;;;;;;23.53;61.61;99987.75;1752535;79;25611;-76
2022/07/26 09:33:48;;;;;;;9.15;5.67;;;;;;;23.55;62.06;99984.18;1759048;81;28398;-76
2022/07/26 09:36:16;;;;;;;7.75;4.60;;;;;;;23.51;61.72;99991.87;1755357;81;25883;-76
2022/07/26 09:38:45;;;;;;;8.88;5.22;;;;;;;23.48;62.16;99995.20;1757716;81;25860;-75
2022/07/26 09:41:30;;;;;;;5.60;5.05;;;;;;;23.45;62.25;99985.64;1745516;79;25747;-76
2022/07/26 09:44:00;;;;;;;7.33;4.83;;;;;;;23.46;62.14;99995.45;1757590;79;25698;-75
2022/07/26 09:46:29;;;;;;;6.65;4.97;;;;;;;23.46;62.43;100006.39;1753480;79;27516;-76
2022/07/26 09:48:59;;;;;;;9.23;5.42;;;;;;;23.46;62.07;100004.23;1748317;79;25890;-76
2022/07/26 09:51:41;;;;;;;8.50;4.70;;;;;;;23.47;62.57;100001.75;1778852;79;32607;-75
2022/07/26 09:54:10;;;;;;;6.75;5.20;;;;;;;23.48;62.23;99997.35;1745609;81;25869;-76
2022/07/26 09:56:47;;;;;;;6.97;4.92;;;;;;;23.48;62.57;100006.13;1756124;81;25841;-76
2022/07/26 09:59:18;;;;;;;7.45;4.42;;;;;;;23.53;62.63;100012.36;1730929;81;28026;-76
2022/07/26 10:01:45;;;;;;;6.50;5.03;;;;;;;23.53;62.16;100012.36;1756746;79;25827;-76
2022/07/26 10:04:13;;;;;;;9.33;4.80;;;;;;;23.56;62.49;100009.61;1734286;81;25841;-75
2022/07/26 10:06:40;;;;;;;5.45;4.30;;;;;;;23.57;63.09;100013.42;1757327;79;26552;-77
2022/07/26 10:09:08;;;;;;;6.35;4.65;;;;;;;23.53;62.57;100014.27;1716734;82;26584;-76
2022/07/26 10:11:43;;;;;;;8.05;4.50;;;;;;;23.50;62.69;100017.02;1751862;81;27753;-76
2022/07/26 10:14:45;;;;;;;7.25;4.95;;;;;;;23.51;62.69;100018.66;1757851;81;25807;-76
2022/07/26 10:17:38;;;;;;;8.08;4.60;;;;;;;23.44;62.55;100027.73;1756708;80;25347;-75
2022/07/26 10:20:07;;;;;;;6.78;4.72;;;;;;;23.39;62.68;100026.97;1770451;80;25750;-77
2022/07/26 10:22:49;;;;;;;5.35;4.85;;;;;;;23.37;62.57;100034.09;1761477;79;25853;-75
2022/07/26 10:25:24;;;;;;;6.90;4.92;;;;;;;23.37;63.12;100035.45;1755562;81;27512;-75
2022/07/26 10:27:56;;;;;;;7.55;4.78;;;;;;;23.39;63.14;100035.17;1755125;81;26388;-75
2022/07/26 10:30:26;;;;;;;8.08;5.03;;;;;;;23.35;62.69;100047.20;1769732;79;25822;-75
2022/07/26 10:33:09;;;;;;;8.63;4.90;;;;;;;23.35;62.98;100043.67;1755734;79;26599;-76
2022/07/26 10:35:39;;;;;;;6.12;4.62;;;;;;;23.35;63.14;100050.50;1762129;81;25795;-76
2022/07/26 10:38:10;;;;;;;10.80;5.22;;;;;;;23.33;63.15;100056.80;1744166;81;27431;-75
2022/07/26 10:40:39;;;;;;;7.47;5.33;;;;;;;23.30;63.18;100062.25;1754832;79;25319;-76
2022/07/26 10:43:15;;;;;;;5.90;5.30;;;;;;;23.26;63.46;100059.82;1729270;81;25914;-76
2022/07/26 10:45:43;;;;;;;8.63;5.58;;;;;;;23.21;63.25;100062.58;1756448;79;26159;-76
2022/07/26 10:48:17;;;;;;;7.00;5.70;;;;;;;23.16;63.34;100070.79;1758042;81;25849;-75
2022/07/26 10:50:48;;;;;;;9.65;6.00;;;;;;;23.11;63.75;100068.11;1750486;79;28280;-75
2022/07/26 10:53:25;;;;;;;10.95;5.90;;;;;;;23.11;64.22;100064.55;1760543;81;25728;-76
2022/07/26 10:55:57;;;;;;;8.40;6.78;;;;;;;23.01;63.91;100064.86;1727653;81;25831;-75
2022/07/26 10:58:25;;;;;;;8.15;6.28;;;;;;;22.96;64.47;100076.38;1762970;81;26582;-76
2022/07/26 11:01:02;;;;;;;7.28;6.58;;;;;;;22.94;64.72;100085.40;1764841;79;25883;-75
2022/07/26 11:03:39;;;;;;;10.48;6.83;;;;;;;22.90;64.84;100096.62;1753255;79;27451;-76
2022/07/26 11:06:15;;;;;;;9.45;7.03;;;;;;;22.87;64.80;100101.27;1749656;81;25826;-75
2022/07/26 11:08:45;;;;;;;10.90;6.75;;;;;;;22.85;65.07;100095.27;1749587;81;25884;-76
2022/07/26 11:11:13;;;;;;;7.70;6.92;;;;;;;22.87;65.58;100095.80;1762526;80;26630;-76
2022/07/26 11:13:39;;;;;;;8.20;6.58;;;;;;;22.90;65.70;100096.62;1752504;79;25918;-75
2022/07/26 11:16:08;;;;;;;6.83;6.12;;;;;;;22.85;65.56;100100.72;1758174;79;27461;-76
2022/07/26 11:18:37;;;;;;;10.68;8.05;;;;;;;22.84;65.63;100106.73;1758754;81;25845;-76
2022/07/26 11:21:16;;;;;;;9.13;7.30;;;;;;;22.80;66.01;100103.47;1759619;81;26523;-75
2022/07/26 11:23:45;;;;;;;10.63;7.33;;;;;;;22.75;66.44;100102.14;1729665;82;25939;-75
2022/07/26 11:26:16;;;;;;;8.68;6.90;;;;;;;22.71;66.61;100107.89;1763814;81;25866;-75
2022/07/26 11:28:59;;;;;;;8.15;7.12;;;;;;;22.66;66.93;100114.17;1759525;80;27420;-75
2022/07/26 11:31:38;;;;;;;7.80;7.08;;;;;;;22.63;67.35;100107.07;1759793;81;25735;-76
2022/07/26 11:34:06;;;;;;;12.65;8.00;;;;;;;22.62;67.64;100113.64;1754750;81;25746;-76
2022/07/26 11:36:42;;;;;;;10.65;7.53;;;;;;;22.56;68.63;100111.42;1751359;81;26076;-75
2022/07/26 11:39:12;;;;;;;12.68;9.03;;;;;;;22.44;68.76;100116.38;1756105;81;25898;-76